If you wish to contribute or participate in the discussions about articles you are invited to join SKYbrary as a registered user

 Actions

King Salmon Airport

From SKYbrary Wiki

PAKN
Airport
ICAO: PAKN
Summary
Name King Salmon Airport
Region North America
Territory Alaska US.gif
Location King Salmon
Serving
Coordinates 58° 40' 36.00" N, 156° 38' 57.00" W
Runways
Designator Length Width Surface ROPS
12/30 2713 m8,900.919 ft
46 m150.919 ft
ASPH-F yes/yes
18/36 1225 m4,019.029 ft
30 m98.425 ft
ASP no/no
NW/SE 1219 m3,999.344 ft
152 m498.688 ft
WATER /


METAR
Observation PAKN 170454Z 29005KT 10SM SCT065 SCT230 13/09 A2977 RMK AO2 SLP080 T01280094
Station King Salmon, King Salmon Airport
Date/Time 17 September 2019 04:54:00
Wind direction 290°
Wind speed 05 kts
Lowest cloud amount scattered clouds
Temperature 12.8°C
Dew point 9.4°C
Humidity 79%
QNH hPa
Weather condition n/a

BS
Tag(s) Bird Strike
BS
Tag(s) Non Avian Wildlife Hazards to Aircraft
CFIT
Tag(s) Altimeter Temperature Error Correction

King Salmon Airport

ICAO: PAKN IATA: AKN

Description

Regional airport serving the community of King Salmon, Alaska. Formerly Naknek Air Force Base.

Climatology

Subarctic climate (Köppen climate classification Dfc) - long, usually very cold winters, and short, cool to mild summers.

Maps

Terrain

Loading map...

Airport Layout

Loading map...


Accidents & Serious Incidents at or in vicinity of PAKN

None on SKYbrary